Alt de Parq Ecuestre, Puerto Rico
Current Conditions -  °F | °C
As of 6:56 AM on Thursday 18 Dec 2014 (Local Time) from TJSJ Reporting Station
Scattered Clouds Scattered Clouds  
Wind Chill: 77°   Ceiling: Unl
Heat Index: 79°   Visibility: 10mi
Dew Point: 66°   Wind: 9mph
Humidity: 69%   Direction: 30°NNE
Pressure: 30.02"   Gusts: NA
Location:  18.4083°N, 65.981°W
Report Text: TJSJ 181056Z 03008KT 10SM FEW022 SCT037 SCT085 25/19 A3002 RMK AO2 SLP164 T02500189
Loading
Personal Weather Stations






























Interactive Weather Map New forecast layout! Learn more

10-Day Weather Forecast

Advertisements
Track Severe Weather on mobile